EWG0706 EDNY-EDDW
Flight info
| Callsign | EWG0706 |
|---|---|
| Flight time | N/A |
| Altitude | 22000 |
| Route | ALAGO1W ALAGO Z1 ETAGO Z3 LBU/N0432F380 N851 RIMKI Z99 LOHRE/N0434F390 DCT NORTA DCT SAS DCT NIE Z88 VERED VERED3P |
| Aircraft | A20N/M-SDE2E3FGHIRWXY/LB1 |
Departure
| Time | 2026-04-24 16:57 |
|---|---|
| Airport | Bodensee Airport Friedrichshafen (EDNY) |
Arrival
| Time | N/A |
|---|---|
| Airport | Bremen Airport (EDDW) |
| Time | Latitude | Longitude | Altitude | Speed | Heading |
|---|---|---|---|---|---|
| 2026-04-24 16:40 | 47.67361 | 9.52380 | 1368 ft | 0 kts | 198° |
| 2026-04-24 16:54 | 47.67357 | 9.52376 | 1368 ft | 3 kts | 211° |
| 2026-04-24 16:54 | 47.67360 | 9.52357 | 1366 ft | 2 kts | 318° |
| 2026-04-24 16:54 | 47.67400 | 9.52359 | 1368 ft | 9 kts | 9° |
| 2026-04-24 16:54 | 47.67450 | 9.52444 | 1368 ft | 13 kts | 60° |
| 2026-04-24 16:55 | 47.67491 | 9.52551 | 1368 ft | 8 kts | 59° |
| 2026-04-24 16:55 | 47.67546 | 9.52584 | 1367 ft | 9 kts | 344° |
| 2026-04-24 16:55 | 47.67597 | 9.52540 | 1373 ft | 8 kts | 328° |
| 2026-04-24 16:55 | 47.67637 | 9.52475 | 1372 ft | 9 kts | 277° |
| 2026-04-24 16:56 | 47.67618 | 9.52405 | 1373 ft | 0 kts | 239° |
| 2026-04-24 16:56 | 47.67599 | 9.52358 | 1373 ft | 29 kts | 239° |
| 2026-04-24 16:56 | 47.67370 | 9.51772 | 1361 ft | 99 kts | 240° |
| 2026-04-24 16:56 | 47.66933 | 9.50645 | 1357 ft | 151 kts | 240° |
| 2026-04-24 16:57 | 47.66428 | 9.49282 | 1832 ft | 155 kts | 243° |
| 2026-04-24 16:57 | 47.65907 | 9.47750 | 2183 ft | 178 kts | 243° |
| 2026-04-24 16:57 | 47.65326 | 9.46034 | 2610 ft | 193 kts | 245° |
| 2026-04-24 16:57 | 47.64728 | 9.44285 | 3315 ft | 191 kts | 244° |
| 2026-04-24 16:58 | 47.64120 | 9.42557 | 4011 ft | 188 kts | 243° |
| 2026-04-24 16:58 | 47.63489 | 9.40807 | 4588 ft | 199 kts | 244° |
| 2026-04-24 16:58 | 47.63054 | 9.38788 | 5170 ft | 212 kts | 268° |
| 2026-04-24 16:58 | 47.63264 | 9.36603 | 5682 ft | 226 kts | 292° |
| 2026-04-24 16:59 | 47.64149 | 9.34667 | 6193 ft | 230 kts | 321° |
| 2026-04-24 16:59 | 47.65541 | 9.33463 | 6389 ft | 234 kts | 341° |
| 2026-04-24 16:59 | 47.68647 | 9.32167 | 6115 ft | 229 kts | 359° |
| 2026-04-24 17:00 | 47.70222 | 9.32471 | 6338 ft | 230 kts | 22° |
| 2026-04-24 17:00 | 47.72653 | 9.35421 | 8081 ft | 224 kts | 46° |
| 2026-04-24 17:00 | 47.73759 | 9.37065 | 8981 ft | 227 kts | 45° |
| 2026-04-24 17:01 | 47.76033 | 9.40423 | 10668 ft | 233 kts | 45° |
| 2026-04-24 17:01 | 47.77184 | 9.42135 | 11491 ft | 235 kts | 45° |
| 2026-04-24 17:02 | 47.79596 | 9.45490 | 13071 ft | 240 kts | 30° |
| 2026-04-24 17:02 | 47.81174 | 9.46304 | 13832 ft | 245 kts | 7° |
| 2026-04-24 17:02 | 47.82904 | 9.46333 | 14389 ft | 256 kts | 1° |
| 2026-04-24 17:02 | 47.84768 | 9.46304 | 14627 ft | 280 kts | 1° |
| 2026-04-24 17:03 | 47.88993 | 9.46276 | 15038 ft | 327 kts | 1° |
| 2026-04-24 17:03 | 47.91338 | 9.46269 | 15274 ft | 346 kts | 1° |
| 2026-04-24 17:03 | 47.93777 | 9.46261 | 15878 ft | 353 kts | 1° |
| 2026-04-24 17:04 | 47.96238 | 9.46251 | 16637 ft | 355 kts | 1° |
| 2026-04-24 17:04 | 48.01232 | 9.46235 | 18051 ft | 363 kts | 2° |
| 2026-04-24 17:04 | 48.03739 | 9.46228 | 18689 ft | 367 kts | 2° |
| 2026-04-24 17:05 | 48.06296 | 9.46221 | 19327 ft | 369 kts | 2° |
| 2026-04-24 17:05 | 48.08877 | 9.46214 | 19921 ft | 373 kts | 2° |
| 2026-04-24 17:05 | 48.14113 | 9.46200 | 21142 ft | 379 kts | 2° |
| 2026-04-24 17:06 | 48.16762 | 9.46193 | 21731 ft | 382 kts | 2° |
| 2026-04-24 17:06 | 48.22125 | 9.46192 | 22133 ft | 386 kts | 2° |
| 2026-04-24 17:06 | 48.24810 | 9.46194 | 22134 ft | 386 kts | 2° |
| 2026-04-24 17:07 | 48.26582 | 9.46196 | 22135 ft | 386 kts | 2° |
| 2026-04-24 17:07 | 48.30178 | 9.46201 | 22137 ft | 386 kts | 2° |
| 2026-04-24 17:07 | 48.35554 | 9.46206 | 22140 ft | 386 kts | 2° |
| 2026-04-24 17:08 | 48.40928 | 9.46210 | 22135 ft | 387 kts | 2° |
| 2026-04-24 17:08 | 48.43620 | 9.46211 | 22138 ft | 386 kts | 2° |
| 2026-04-24 17:08 | 48.46310 | 9.46214 | 22137 ft | 387 kts | 2° |
| 2026-04-24 17:09 | 48.51701 | 9.46217 | 22133 ft | 387 kts | 2° |
| 2026-04-24 17:09 | 48.57096 | 9.46191 | 22136 ft | 387 kts | 2° |
| 2026-04-24 17:10 | 48.59790 | 9.46155 | 22133 ft | 387 kts | 1° |
| 2026-04-24 17:10 | 48.67885 | 9.46051 | 22131 ft | 388 kts | 1° |
| 2026-04-24 17:11 | 48.75860 | 9.43988 | 22131 ft | 394 kts | 341° |
| 2026-04-24 17:12 | 48.88566 | 9.35824 | 23571 ft | 403 kts | 342° |